sensor_id;sensor_type;location;lat;lon;timestamp;temperature;humidity
36444;DHT22;24692;45.642;13.806;2022-11-15T00:02:22;11.40;99.90
36444;DHT22;24692;45.642;13.806;2022-11-15T00:04:48;11.30;99.90
36444;DHT22;24692;45.642;13.806;2022-11-15T00:07:14;11.20;99.90
36444;DHT22;24692;45.642;13.806;2022-11-15T00:09:39;11.20;99.90
36444;DHT22;24692;45.642;13.806;2022-11-15T00:12:05;11.20;99.90
36444;DHT22;24692;45.642;13.806;2022-11-15T00:14:31;11.20;99.90
36444;DHT22;24692;45.642;13.806;2022-11-15T00:16:56;11.20;99.90
36444;DHT22;24692;45.642;13.806;2022-11-15T00:19:22;11.20;99.90
36444;DHT22;24692;45.642;13.806;2022-11-15T00:21:47;11.10;99.90
36444;DHT22;24692;45.642;13.806;2022-11-15T00:24:13;11.20;99.90
36444;DHT22;24692;45.642;13.806;2022-11-15T00:26:39;11.30;99.90
36444;DHT22;24692;45.642;13.806;2022-11-15T00:29:04;11.50;99.90
36444;DHT22;24692;45.642;13.806;2022-11-15T00:31:30;11.50;99.90
36444;DHT22;24692;45.642;13.806;2022-11-15T00:33:56;11.50;99.90
36444;DHT22;24692;45.642;13.806;2022-11-15T00:36:22;11.50;99.90
36444;DHT22;24692;45.642;13.806;2022-11-15T00:38:47;11.40;99.90
36444;DHT22;24692;45.642;13.806;2022-11-15T00:41:13;11.40;99.90
36444;DHT22;24692;45.642;13.806;2022-11-15T00:43:38;11.40;99.90
36444;DHT22;24692;45.642;13.806;2022-11-15T00:46:05;11.30;99.90
36444;DHT22;24692;45.642;13.806;2022-11-15T00:48:31;11.30;99.90
36444;DHT22;24692;45.642;13.806;2022-11-15T00:50:57;11.30;99.90
36444;DHT22;24692;45.642;13.806;2022-11-15T00:53:23;11.40;99.90
36444;DHT22;24692;45.642;13.806;2022-11-15T00:55:49;11.40;99.90
36444;DHT22;24692;45.642;13.806;2022-11-15T00:58:15;11.40;99.90
36444;DHT22;24692;45.642;13.806;2022-11-15T01:00:40;11.40;99.90
36444;DHT22;24692;45.642;13.806;2022-11-15T01:03:06;11.40;99.90
36444;DHT22;24692;45.642;13.806;2022-11-15T01:05:31;11.40;99.90
36444;DHT22;24692;45.642;13.806;2022-11-15T01:07:57;11.40;99.90
36444;DHT22;24692;45.642;13.806;2022-11-15T01:10:23;11.40;99.90
36444;DHT22;24692;45.642;13.806;2022-11-15T01:12:51;11.40;99.90
36444;DHT22;24692;45.642;13.806;2022-11-15T01:22:22;11.30;99.90
36444;DHT22;24692;45.642;13.806;2022-11-15T01:24:50;11.10;99.90
36444;DHT22;24692;45.642;13.806;2022-11-15T01:27:16;11.10;99.90
36444;DHT22;24692;45.642;13.806;2022-11-15T01:29:42;11.10;99.90
36444;DHT22;24692;45.642;13.806;2022-11-15T01:32:08;11.00;99.90
36444;DHT22;24692;45.642;13.806;2022-11-15T01:34:33;10.90;99.90
36444;DHT22;24692;45.642;13.806;2022-11-15T01:36:59;10.80;99.90
36444;DHT22;24692;45.642;13.806;2022-11-15T01:39:25;10.80;99.90
36444;DHT22;24692;45.642;13.806;2022-11-15T01:41:51;10.70;99.90
36444;DHT22;24692;45.642;13.806;2022-11-15T01:44:38;10.70;99.90
36444;DHT22;24692;45.642;13.806;2022-11-15T01:47:23;10.60;99.90
36444;DHT22;24692;45.642;13.806;2022-11-15T01:49:55;10.60;99.90
36444;DHT22;24692;45.642;13.806;2022-11-15T01:52:24;10.50;99.90
36444;DHT22;24692;45.642;13.806;2022-11-15T01:57:31;10.40;99.90
36444;DHT22;24692;45.642;13.806;2022-11-15T01:59:57;10.40;99.90
36444;DHT22;24692;45.642;13.806;2022-11-15T02:02:24;10.40;99.90
36444;DHT22;24692;45.642;13.806;2022-11-15T02:04:49;10.40;99.90
36444;DHT22;24692;45.642;13.806;2022-11-15T02:07:17;10.30;99.90
36444;DHT22;24692;45.642;13.806;2022-11-15T02:09:44;10.20;99.90
36444;DHT22;24692;45.642;13.806;2022-11-15T02:12:10;10.10;99.90
36444;DHT22;24692;45.642;13.806;2022-11-15T02:14:40;10.10;99.90
36444;DHT22;24692;45.642;13.806;2022-11-15T02:23:04;10.30;99.90
36444;DHT22;24692;45.642;13.806;2022-11-15T02:25:39;10.30;99.90
36444;DHT22;24692;45.642;13.806;2022-11-15T02:31:28;10.20;99.90
36444;DHT22;24692;45.642;13.806;2022-11-15T02:40:14;10.20;99.90
36444;DHT22;24692;45.642;13.806;2022-11-15T02:42:49;10.10;99.90
36444;DHT22;24692;45.642;13.806;2022-11-15T02:45:47;10.00;99.90
36444;DHT22;24692;45.642;13.806;2022-11-15T02:48:15;10.00;99.90
36444;DHT22;24692;45.642;13.806;2022-11-15T02:50:42;10.10;99.90
36444;DHT22;24692;45.642;13.806;2022-11-15T02:53:08;10.10;99.90
36444;DHT22;24692;45.642;13.806;2022-11-15T02:55:39;10.10;99.90
36444;DHT22;24692;45.642;13.806;2022-11-15T03:04:16;10.00;99.90
36444;DHT22;24692;45.642;13.806;2022-11-15T03:07:10;10.00;99.90
36444;DHT22;24692;45.642;13.806;2022-11-15T03:09:46;10.10;99.90
36444;DHT22;24692;45.642;13.806;2022-11-15T03:12:56;10.00;99.90
36444;DHT22;24692;45.642;13.806;2022-11-15T03:15:27;10.00;99.90
36444;DHT22;24692;45.642;13.806;2022-11-15T03:18:10;10.00;99.90
36444;DHT22;24692;45.642;13.806;2022-11-15T03:20:39;10.00;99.90
36444;DHT22;24692;45.642;13.806;2022-11-15T03:23:08;10.00;99.90
36444;DHT22;24692;45.642;13.806;2022-11-15T03:25:40;10.00;99.90
36444;DHT22;24692;45.642;13.806;2022-11-15T03:28:07;10.10;99.90
36444;DHT22;24692;45.642;13.806;2022-11-15T03:30:36;10.20;99.90
36444;DHT22;24692;45.642;13.806;2022-11-15T03:33:04;10.20;99.90
36444;DHT22;24692;45.642;13.806;2022-11-15T03:35:40;10.10;99.90
36444;DHT22;24692;45.642;13.806;2022-11-15T03:38:08;10.20;99.90
36444;DHT22;24692;45.642;13.806;2022-11-15T03:40:48;10.20;99.90
36444;DHT22;24692;45.642;13.806;2022-11-15T03:46:11;10.30;99.90
36444;DHT22;24692;45.642;13.806;2022-11-15T03:48:42;10.30;99.90
36444;DHT22;24692;45.642;13.806;2022-11-15T03:51:09;10.30;99.90
36444;DHT22;24692;45.642;13.806;2022-11-15T03:53:35;10.30;99.90
36444;DHT22;24692;45.642;13.806;2022-11-15T03:56:01;10.40;99.90
36444;DHT22;24692;45.642;13.806;2022-11-15T03:58:27;10.40;99.90
36444;DHT22;24692;45.642;13.806;2022-11-15T04:00:52;10.40;99.90
36444;DHT22;24692;45.642;13.806;2022-11-15T04:03:18;10.50;99.90
36444;DHT22;24692;45.642;13.806;2022-11-15T04:05:44;10.60;99.90
36444;DHT22;24692;45.642;13.806;2022-11-15T04:08:09;10.60;99.90
36444;DHT22;24692;45.642;13.806;2022-11-15T04:10:35;10.50;99.90
36444;DHT22;24692;45.642;13.806;2022-11-15T04:13:02;10.60;99.90
36444;DHT22;24692;45.642;13.806;2022-11-15T04:15:28;10.50;99.90
36444;DHT22;24692;45.642;13.806;2022-11-15T04:17:56;10.50;99.90
36444;DHT22;24692;45.642;13.806;2022-11-15T04:20:27;10.50;99.90
36444;DHT22;24692;45.642;13.806;2022-11-15T04:23:13;10.40;99.90
36444;DHT22;24692;45.642;13.806;2022-11-15T04:25:59;10.40;99.90
36444;DHT22;24692;45.642;13.806;2022-11-15T04:28:25;10.40;99.90
36444;DHT22;24692;45.642;13.806;2022-11-15T04:30:51;10.40;99.90
36444;DHT22;24692;45.642;13.806;2022-11-15T04:33:17;10.40;99.90
36444;DHT22;24692;45.642;13.806;2022-11-15T04:35:43;10.40;99.90
36444;DHT22;24692;45.642;13.806;2022-11-15T04:38:10;10.40;99.90
36444;DHT22;24692;45.642;13.806;2022-11-15T04:40:37;10.40;99.90
36444;DHT22;24692;45.642;13.806;2022-11-15T04:43:03;10.40;99.90
36444;DHT22;24692;45.642;13.806;2022-11-15T04:45:29;10.40;99.90
36444;DHT22;24692;45.642;13.806;2022-11-15T04:47:55;10.50;99.90
36444;DHT22;24692;45.642;13.806;2022-11-15T04:50:20;10.60;99.90
36444;DHT22;24692;45.642;13.806;2022-11-15T04:52:53;10.60;99.90
36444;DHT22;24692;45.642;13.806;2022-11-15T04:55:19;10.70;99.90
36444;DHT22;24692;45.642;13.806;2022-11-15T04:57:45;10.70;99.90
36444;DHT22;24692;45.642;13.806;2022-11-15T05:00:15;10.70;99.90
36444;DHT22;24692;45.642;13.806;2022-11-15T05:02:41;10.80;99.90
36444;DHT22;24692;45.642;13.806;2022-11-15T05:05:25;10.90;99.90
36444;DHT22;24692;45.642;13.806;2022-11-15T05:07:50;10.80;99.90
36444;DHT22;24692;45.642;13.806;2022-11-15T05:10:16;10.80;99.90
36444;DHT22;24692;45.642;13.806;2022-11-15T05:12:42;10.90;99.90
36444;DHT22;24692;45.642;13.806;2022-11-15T05:15:08;10.90;99.90
36444;DHT22;24692;45.642;13.806;2022-11-15T05:17:34;10.90;99.90
36444;DHT22;24692;45.642;13.806;2022-11-15T05:19:59;11.00;99.90
36444;DHT22;24692;45.642;13.806;2022-11-15T05:22:26;11.10;99.90
36444;DHT22;24692;45.642;13.806;2022-11-15T05:24:52;11.10;99.90
36444;DHT22;24692;45.642;13.806;2022-11-15T05:27:17;11.10;99.90
36444;DHT22;24692;45.642;13.806;2022-11-15T05:29:43;11.10;99.90
36444;DHT22;24692;45.642;13.806;2022-11-15T05:32:09;11.10;99.90
36444;DHT22;24692;45.642;13.806;2022-11-15T05:34:36;11.10;99.90
36444;DHT22;24692;45.642;13.806;2022-11-15T05:37:03;11.10;99.90
36444;DHT22;24692;45.642;13.806;2022-11-15T05:39:29;11.20;99.90
36444;DHT22;24692;45.642;13.806;2022-11-15T05:42:09;11.20;99.90
36444;DHT22;24692;45.642;13.806;2022-11-15T05:44:36;11.20;99.90
36444;DHT22;24692;45.642;13.806;2022-11-15T05:47:03;11.30;99.90
36444;DHT22;24692;45.642;13.806;2022-11-15T05:49:33;11.40;99.90
36444;DHT22;24692;45.642;13.806;2022-11-15T05:52:00;11.40;99.90
36444;DHT22;24692;45.642;13.806;2022-11-15T05:54:26;11.40;99.90
36444;DHT22;24692;45.642;13.806;2022-11-15T05:56:52;11.40;99.90
36444;DHT22;24692;45.642;13.806;2022-11-15T05:59:18;11.50;99.90
36444;DHT22;24692;45.642;13.806;2022-11-15T06:01:44;11.50;99.90
36444;DHT22;24692;45.642;13.806;2022-11-15T06:04:10;11.50;99.90
36444;DHT22;24692;45.642;13.806;2022-11-15T06:06:35;11.60;99.90
36444;DHT22;24692;45.642;13.806;2022-11-15T06:09:01;11.60;99.90
36444;DHT22;24692;45.642;13.806;2022-11-15T06:11:27;11.60;99.90
36444;DHT22;24692;45.642;13.806;2022-11-15T06:13:52;11.70;99.90
36444;DHT22;24692;45.642;13.806;2022-11-15T06:16:18;11.80;99.90
36444;DHT22;24692;45.642;13.806;2022-11-15T06:18:44;11.90;99.90
36444;DHT22;24692;45.642;13.806;2022-11-15T06:21:09;12.00;99.90
36444;DHT22;24692;45.642;13.806;2022-11-15T06:23:35;12.00;99.90
36444;DHT22;24692;45.642;13.806;2022-11-15T06:26:02;12.10;99.90
36444;DHT22;24692;45.642;13.806;2022-11-15T06:28:29;12.50;99.90
36444;DHT22;24692;45.642;13.806;2022-11-15T06:30:54;13.20;99.90
36444;DHT22;24692;45.642;13.806;2022-11-15T06:33:20;13.60;99.90
36444;DHT22;24692;45.642;13.806;2022-11-15T06:35:46;13.80;99.90
36444;DHT22;24692;45.642;13.806;2022-11-15T06:38:11;13.50;99.90
36444;DHT22;24692;45.642;13.806;2022-11-15T06:40:38;13.30;99.90
36444;DHT22;24692;45.642;13.806;2022-11-15T06:43:05;13.20;99.90
36444;DHT22;24692;45.642;13.806;2022-11-15T06:45:31;13.60;99.90
36444;DHT22;24692;45.642;13.806;2022-11-15T06:47:57;13.60;99.90
36444;DHT22;24692;45.642;13.806;2022-11-15T06:50:30;13.60;99.90
36444;DHT22;24692;45.642;13.806;2022-11-15T06:52:59;13.50;99.90
36444;DHT22;24692;45.642;13.806;2022-11-15T06:55:26;13.70;99.90
36444;DHT22;24692;45.642;13.806;2022-11-15T06:57:52;13.50;99.90
36444;DHT22;24692;45.642;13.806;2022-11-15T07:00:19;13.60;99.90
36444;DHT22;24692;45.642;13.806;2022-11-15T07:02:46;13.60;99.90
36444;DHT22;24692;45.642;13.806;2022-11-15T07:05:13;13.70;99.90
36444;DHT22;24692;45.642;13.806;2022-11-15T07:07:39;13.50;99.90
36444;DHT22;24692;45.642;13.806;2022-11-15T07:10:05;13.20;99.90
36444;DHT22;24692;45.642;13.806;2022-11-15T07:12:31;13.00;99.90
36444;DHT22;24692;45.642;13.806;2022-11-15T07:14:57;13.10;99.90
36444;DHT22;24692;45.642;13.806;2022-11-15T07:17:22;13.50;99.90
36444;DHT22;24692;45.642;13.806;2022-11-15T07:19:48;13.40;99.90
36444;DHT22;24692;45.642;13.806;2022-11-15T07:22:14;13.60;99.90
36444;DHT22;24692;45.642;13.806;2022-11-15T07:24:39;13.80;99.90
36444;DHT22;24692;45.642;13.806;2022-11-15T07:27:05;13.80;99.90
36444;DHT22;24692;45.642;13.806;2022-11-15T07:29:30;13.80;99.90
36444;DHT22;24692;45.642;13.806;2022-11-15T07:31:56;14.00;99.90
36444;DHT22;24692;45.642;13.806;2022-11-15T07:34:22;14.20;99.90
36444;DHT22;24692;45.642;13.806;2022-11-15T07:36:49;14.40;99.90
36444;DHT22;24692;45.642;13.806;2022-11-15T07:39:15;14.50;99.90
36444;DHT22;24692;45.642;13.806;2022-11-15T07:41:40;14.40;99.90
36444;DHT22;24692;45.642;13.806;2022-11-15T07:44:06;14.10;99.90
36444;DHT22;24692;45.642;13.806;2022-11-15T07:46:32;14.20;99.90
36444;DHT22;24692;45.642;13.806;2022-11-15T07:48:57;14.10;99.90
36444;DHT22;24692;45.642;13.806;2022-11-15T07:51:24;14.20;99.90
36444;DHT22;24692;45.642;13.806;2022-11-15T07:53:50;14.30;99.90
36444;DHT22;24692;45.642;13.806;2022-11-15T07:56:16;14.50;99.90
36444;DHT22;24692;45.642;13.806;2022-11-15T07:58:42;14.80;99.90
36444;DHT22;24692;45.642;13.806;2022-11-15T08:01:09;15.10;99.90
36444;DHT22;24692;45.642;13.806;2022-11-15T08:03:36;15.30;99.90
36444;DHT22;24692;45.642;13.806;2022-11-15T08:06:02;15.00;99.90
36444;DHT22;24692;45.642;13.806;2022-11-15T08:08:28;15.20;99.90
36444;DHT22;24692;45.642;13.806;2022-11-15T08:10:54;15.20;99.90
36444;DHT22;24692;45.642;13.806;2022-11-15T08:13:20;15.00;99.90
36444;DHT22;24692;45.642;13.806;2022-11-15T08:15:46;15.10;99.90
36444;DHT22;24692;45.642;13.806;2022-11-15T08:18:16;15.20;99.90
36444;DHT22;24692;45.642;13.806;2022-11-15T08:20:42;15.40;99.90
36444;DHT22;24692;45.642;13.806;2022-11-15T08:23:10;15.70;99.90
36444;DHT22;24692;45.642;13.806;2022-11-15T08:25:36;15.80;99.90
36444;DHT22;24692;45.642;13.806;2022-11-15T08:28:05;15.60;99.90
36444;DHT22;24692;45.642;13.806;2022-11-15T08:30:35;15.70;99.90
36444;DHT22;24692;45.642;13.806;2022-11-15T08:33:01;15.60;99.90
36444;DHT22;24692;45.642;13.806;2022-11-15T08:35:28;15.50;99.90
36444;DHT22;24692;45.642;13.806;2022-11-15T08:37:55;15.50;99.90
36444;DHT22;24692;45.642;13.806;2022-11-15T08:40:21;15.60;99.90
36444;DHT22;24692;45.642;13.806;2022-11-15T08:42:47;15.30;99.90
36444;DHT22;24692;45.642;13.806;2022-11-15T08:45:13;15.40;99.90
36444;DHT22;24692;45.642;13.806;2022-11-15T08:47:39;15.80;99.90
36444;DHT22;24692;45.642;13.806;2022-11-15T08:50:05;16.30;99.90
36444;DHT22;24692;45.642;13.806;2022-11-15T08:52:30;16.90;99.90
36444;DHT22;24692;45.642;13.806;2022-11-15T08:54:57;16.50;99.90
36444;DHT22;24692;45.642;13.806;2022-11-15T08:57:22;15.90;99.90
36444;DHT22;24692;45.642;13.806;2022-11-15T08:59:48;15.60;99.90
36444;DHT22;24692;45.642;13.806;2022-11-15T09:02:14;15.30;99.90
36444;DHT22;24692;45.642;13.806;2022-11-15T09:04:43;15.30;99.90
36444;DHT22;24692;45.642;13.806;2022-11-15T09:07:10;15.20;99.90
36444;DHT22;24692;45.642;13.806;2022-11-15T09:09:37;15.20;99.90
36444;DHT22;24692;45.642;13.806;2022-11-15T09:12:04;15.20;99.90
36444;DHT22;24692;45.642;13.806;2022-11-15T09:14:30;15.50;99.90
36444;DHT22;24692;45.642;13.806;2022-11-15T09:16:55;15.70;99.90
36444;DHT22;24692;45.642;13.806;2022-11-15T09:19:21;15.70;99.90
36444;DHT22;24692;45.642;13.806;2022-11-15T09:21:47;16.00;99.90
36444;DHT22;24692;45.642;13.806;2022-11-15T09:24:13;16.30;99.90
36444;DHT22;24692;45.642;13.806;2022-11-15T09:26:39;16.50;99.90
36444;DHT22;24692;45.642;13.806;2022-11-15T09:29:06;16.50;99.90
36444;DHT22;24692;45.642;13.806;2022-11-15T09:31:32;16.20;99.90
36444;DHT22;24692;45.642;13.806;2022-11-15T09:33:57;16.30;99.90
36444;DHT22;24692;45.642;13.806;2022-11-15T09:36:23;16.20;99.90
36444;DHT22;24692;45.642;13.806;2022-11-15T09:38:49;16.40;99.90
36444;DHT22;24692;45.642;13.806;2022-11-15T09:44:06;15.80;99.90
36444;DHT22;24692;45.642;13.806;2022-11-15T09:46:49;16.00;99.90
36444;DHT22;24692;45.642;13.806;2022-11-15T09:49:19;16.60;99.90
36444;DHT22;24692;45.642;13.806;2022-11-15T09:51:48;17.70;99.90
36444;DHT22;24692;45.642;13.806;2022-11-15T09:56:47;18.20;99.90
36444;DHT22;24692;45.642;13.806;2022-11-15T10:04:51;17.10;99.90
36444;DHT22;24692;45.642;13.806;2022-11-15T10:07:44;17.40;99.90
36444;DHT22;24692;45.642;13.806;2022-11-15T10:13:03;16.60;99.90
36444;DHT22;24692;45.642;13.806;2022-11-15T10:15:29;16.40;99.90
36444;DHT22;24692;45.642;13.806;2022-11-15T10:18:06;16.40;99.90
36444;DHT22;24692;45.642;13.806;2022-11-15T10:20:50;16.20;99.90
36444;DHT22;24692;45.642;13.806;2022-11-15T10:23:19;16.00;99.90
36444;DHT22;24692;45.642;13.806;2022-11-15T10:25:46;16.20;99.90
36444;DHT22;24692;45.642;13.806;2022-11-15T10:31:00;15.60;99.90
36444;DHT22;24692;45.642;13.806;2022-11-15T10:33:36;15.60;99.90
36444;DHT22;24692;45.642;13.806;2022-11-15T10:41:41;15.20;99.90
36444;DHT22;24692;45.642;13.806;2022-11-15T10:46:46;15.10;99.90
36444;DHT22;24692;45.642;13.806;2022-11-15T10:54:25;14.80;99.90
36444;DHT22;24692;45.642;13.806;2022-11-15T10:56:58;14.90;99.90
36444;DHT22;24692;45.642;13.806;2022-11-15T10:59:30;15.00;99.90
36444;DHT22;24692;45.642;13.806;2022-11-15T11:01:57;15.00;99.90
36444;DHT22;24692;45.642;13.806;2022-11-15T11:04:23;15.20;99.90
36444;DHT22;24692;45.642;13.806;2022-11-15T11:06:57;15.50;99.90
36444;DHT22;24692;45.642;13.806;2022-11-15T11:11:55;16.00;99.90
36444;DHT22;24692;45.642;13.806;2022-11-15T11:14:26;16.00;99.90
36444;DHT22;24692;45.642;13.806;2022-11-15T11:27:59;17.80;99.90
36444;DHT22;24692;45.642;13.806;2022-11-15T11:33:21;18.30;99.90
36444;DHT22;24692;45.642;13.806;2022-11-15T11:44:39;17.20;99.90
36444;DHT22;24692;45.642;13.806;2022-11-15T11:47:09;17.20;99.90
36444;DHT22;24692;45.642;13.806;2022-11-15T11:49:59;17.40;99.90
36444;DHT22;24692;45.642;13.806;2022-11-15T11:52:32;17.30;99.90
36444;DHT22;24692;45.642;13.806;2022-11-15T11:55:14;17.10;99.90
36444;DHT22;24692;45.642;13.806;2022-11-15T12:00:24;16.60;99.90
36444;DHT22;24692;45.642;13.806;2022-11-15T12:03:10;16.50;99.90
36444;DHT22;24692;45.642;13.806;2022-11-15T12:05:54;16.40;99.90
36444;DHT22;24692;45.642;13.806;2022-11-15T12:11:12;16.20;99.90
36444;DHT22;24692;45.642;13.806;2022-11-15T12:13:39;16.50;99.90
36444;DHT22;24692;45.642;13.806;2022-11-15T12:16:11;17.80;99.90
36444;DHT22;24692;45.642;13.806;2022-11-15T12:18:38;19.50;99.90
36444;DHT22;24692;45.642;13.806;2022-11-15T12:21:14;20.90;99.90
36444;DHT22;24692;45.642;13.806;2022-11-15T12:23:51;21.60;99.90
36444;DHT22;24692;45.642;13.806;2022-11-15T12:26:21;22.30;99.90
36444;DHT22;24692;45.642;13.806;2022-11-15T12:29:00;21.70;99.90
36444;DHT22;24692;45.642;13.806;2022-11-15T12:31:39;20.60;99.90
36444;DHT22;24692;45.642;13.806;2022-11-15T12:36:49;19.10;99.90
36444;DHT22;24692;45.642;13.806;2022-11-15T12:39:15;18.40;99.90
36444;DHT22;24692;45.642;13.806;2022-11-15T12:59:54;16.10;99.90
36444;DHT22;24692;45.642;13.806;2022-11-15T13:02:44;15.90;99.90
36444;DHT22;24692;45.642;13.806;2022-11-15T13:13:12;15.50;99.90
36444;DHT22;24692;45.642;13.806;2022-11-15T13:15:56;15.50;99.90
36444;DHT22;24692;45.642;13.806;2022-11-15T13:18:37;15.60;99.90
36444;DHT22;24692;45.642;13.806;2022-11-15T13:21:05;15.50;99.90
36444;DHT22;24692;45.642;13.806;2022-11-15T13:24:03;15.50;99.90
36444;DHT22;24692;45.642;13.806;2022-11-15T13:26:29;15.30;99.90
36444;DHT22;24692;45.642;13.806;2022-11-15T13:28:56;15.30;99.90
36444;DHT22;24692;45.642;13.806;2022-11-15T13:31:42;15.30;99.90
36444;DHT22;24692;45.642;13.806;2022-11-15T13:34:29;15.40;99.90
36444;DHT22;24692;45.642;13.806;2022-11-15T13:36:58;15.40;99.90
36444;DHT22;24692;45.642;13.806;2022-11-15T13:39:34;15.40;99.90
36444;DHT22;24692;45.642;13.806;2022-11-15T13:42:01;15.40;99.90
36444;DHT22;24692;45.642;13.806;2022-11-15T13:44:30;15.40;99.90
36444;DHT22;24692;45.642;13.806;2022-11-15T13:47:14;15.20;99.90
36444;DHT22;24692;45.642;13.806;2022-11-15T13:49:40;15.30;99.90
36444;DHT22;24692;45.642;13.806;2022-11-15T13:52:09;15.50;99.90
36444;DHT22;24692;45.642;13.806;2022-11-15T13:54:39;15.60;99.90
36444;DHT22;24692;45.642;13.806;2022-11-15T14:00:27;15.20;99.90
36444;DHT22;24692;45.642;13.806;2022-11-15T14:02:35;15.20;99.90
36444;DHT22;24692;45.642;13.806;2022-11-15T14:05:22;15.30;99.90
36444;DHT22;24692;45.642;13.806;2022-11-15T14:10:35;14.90;99.90
36444;DHT22;24692;45.642;13.806;2022-11-15T14:13:03;14.80;99.90
36444;DHT22;24692;45.642;13.806;2022-11-15T14:15:36;14.70;99.90
36444;DHT22;24692;45.642;13.806;2022-11-15T14:18:03;14.70;99.90
36444;DHT22;24692;45.642;13.806;2022-11-15T14:20:37;14.60;99.90
36444;DHT22;24692;45.642;13.806;2022-11-15T14:23:27;14.60;99.90
36444;DHT22;24692;45.642;13.806;2022-11-15T14:25:54;14.60;99.90
36444;DHT22;24692;45.642;13.806;2022-11-15T14:30:49;14.50;99.90
36444;DHT22;24692;45.642;13.806;2022-11-15T14:33:34;14.50;99.90
36444;DHT22;24692;45.642;13.806;2022-11-15T14:38:31;14.40;99.90
36444;DHT22;24692;45.642;13.806;2022-11-15T14:40:56;14.40;99.90
36444;DHT22;24692;45.642;13.806;2022-11-15T14:43:22;14.40;99.90
36444;DHT22;24692;45.642;13.806;2022-11-15T14:45:48;14.40;99.90
36444;DHT22;24692;45.642;13.806;2022-11-15T14:48:14;14.40;99.90
36444;DHT22;24692;45.642;13.806;2022-11-15T14:50:40;14.30;99.90
36444;DHT22;24692;45.642;13.806;2022-11-15T14:53:06;14.30;99.90
36444;DHT22;24692;45.642;13.806;2022-11-15T14:55:33;14.20;99.90
36444;DHT22;24692;45.642;13.806;2022-11-15T14:58:05;14.20;99.90
36444;DHT22;24692;45.642;13.806;2022-11-15T15:00:34;14.20;99.90
36444;DHT22;24692;45.642;13.806;2022-11-15T15:03:00;14.20;99.90
36444;DHT22;24692;45.642;13.806;2022-11-15T15:07:57;14.10;99.90
36444;DHT22;24692;45.642;13.806;2022-11-15T15:10:24;14.10;99.90
36444;DHT22;24692;45.642;13.806;2022-11-15T15:12:50;14.10;99.90
36444;DHT22;24692;45.642;13.806;2022-11-15T15:15:25;14.10;99.90
36444;DHT22;24692;45.642;13.806;2022-11-15T15:17:51;14.00;99.90
36444;DHT22;24692;45.642;13.806;2022-11-15T15:20:16;13.90;99.90
36444;DHT22;24692;45.642;13.806;2022-11-15T15:22:42;13.80;99.90
36444;DHT22;24692;45.642;13.806;2022-11-15T15:25:34;13.80;99.90
36444;DHT22;24692;45.642;13.806;2022-11-15T15:28:01;13.70;99.90
36444;DHT22;24692;45.642;13.806;2022-11-15T15:30:29;13.70;99.90
36444;DHT22;24692;45.642;13.806;2022-11-15T15:32:55;13.70;99.90
36444;DHT22;24692;45.642;13.806;2022-11-15T15:35:21;13.70;99.90
36444;DHT22;24692;45.642;13.806;2022-11-15T15:37:48;13.70;99.90
36444;DHT22;24692;45.642;13.806;2022-11-15T15:40:19;13.70;99.90
36444;DHT22;24692;45.642;13.806;2022-11-15T15:42:46;13.70;99.90
36444;DHT22;24692;45.642;13.806;2022-11-15T15:45:12;13.70;99.90
36444;DHT22;24692;45.642;13.806;2022-11-15T15:47:38;13.70;99.90
36444;DHT22;24692;45.642;13.806;2022-11-15T15:50:20;13.70;99.90
36444;DHT22;24692;45.642;13.806;2022-11-15T15:52:46;13.70;99.90
36444;DHT22;24692;45.642;13.806;2022-11-15T15:55:12;13.80;99.90
36444;DHT22;24692;45.642;13.806;2022-11-15T15:57:37;13.70;99.90
36444;DHT22;24692;45.642;13.806;2022-11-15T16:00:04;13.50;99.90
36444;DHT22;24692;45.642;13.806;2022-11-15T16:02:30;13.50;99.90
36444;DHT22;24692;45.642;13.806;2022-11-15T16:04:56;13.50;99.90
36444;DHT22;24692;45.642;13.806;2022-11-15T16:07:22;13.40;99.90
36444;DHT22;24692;45.642;13.806;2022-11-15T16:09:51;13.40;99.90
36444;DHT22;24692;45.642;13.806;2022-11-15T16:12:34;13.40;99.90
36444;DHT22;24692;45.642;13.806;2022-11-15T16:15:01;13.40;99.90
36444;DHT22;24692;45.642;13.806;2022-11-15T16:17:33;13.40;99.90
36444;DHT22;24692;45.642;13.806;2022-11-15T16:20:00;13.50;99.90
36444;DHT22;24692;45.642;13.806;2022-11-15T16:22:26;13.50;99.90
36444;DHT22;24692;45.642;13.806;2022-11-15T16:24:53;13.60;99.90
36444;DHT22;24692;45.642;13.806;2022-11-15T16:27:20;13.60;99.90
36444;DHT22;24692;45.642;13.806;2022-11-15T16:29:47;13.60;99.90
36444;DHT22;24692;45.642;13.806;2022-11-15T16:32:13;13.60;99.90
36444;DHT22;24692;45.642;13.806;2022-11-15T16:34:39;13.60;99.90
36444;DHT22;24692;45.642;13.806;2022-11-15T16:37:08;13.60;99.90
36444;DHT22;24692;45.642;13.806;2022-11-15T16:39:33;13.60;99.90
36444;DHT22;24692;45.642;13.806;2022-11-15T16:41:59;13.60;99.90
36444;DHT22;24692;45.642;13.806;2022-11-15T16:44:25;13.60;99.90
36444;DHT22;24692;45.642;13.806;2022-11-15T16:46:51;13.60;99.90
36444;DHT22;24692;45.642;13.806;2022-11-15T16:49:20;13.50;99.90
36444;DHT22;24692;45.642;13.806;2022-11-15T16:51:48;13.50;99.90
36444;DHT22;24692;45.642;13.806;2022-11-15T16:54:14;13.50;99.90
36444;DHT22;24692;45.642;13.806;2022-11-15T16:56:40;13.40;99.90
36444;DHT22;24692;45.642;13.806;2022-11-15T16:59:08;13.40;99.90
36444;DHT22;24692;45.642;13.806;2022-11-15T17:01:36;13.40;99.90
36444;DHT22;24692;45.642;13.806;2022-11-15T17:04:13;13.50;99.90
36444;DHT22;24692;45.642;13.806;2022-11-15T17:06:43;13.40;99.90
36444;DHT22;24692;45.642;13.806;2022-11-15T17:09:17;13.40;99.90
36444;DHT22;24692;45.642;13.806;2022-11-15T17:11:44;13.40;99.90
36444;DHT22;24692;45.642;13.806;2022-11-15T17:14:11;13.40;99.90
36444;DHT22;24692;45.642;13.806;2022-11-15T17:16:37;13.40;99.90
36444;DHT22;24692;45.642;13.806;2022-11-15T17:19:11;13.40;99.90
36444;DHT22;24692;45.642;13.806;2022-11-15T17:21:38;13.40;99.90
36444;DHT22;24692;45.642;13.806;2022-11-15T17:24:04;13.40;99.90
36444;DHT22;24692;45.642;13.806;2022-11-15T17:26:29;13.40;99.90
36444;DHT22;24692;45.642;13.806;2022-11-15T17:28:55;13.30;99.90
36444;DHT22;24692;45.642;13.806;2022-11-15T17:31:26;13.40;99.90
36444;DHT22;24692;45.642;13.806;2022-11-15T17:33:52;13.40;99.90
36444;DHT22;24692;45.642;13.806;2022-11-15T17:36:18;13.40;99.90
36444;DHT22;24692;45.642;13.806;2022-11-15T17:38:43;13.40;99.90
36444;DHT22;24692;45.642;13.806;2022-11-15T17:41:15;13.30;99.90
36444;DHT22;24692;45.642;13.806;2022-11-15T17:43:41;13.30;99.90